createdAt,value
2018-11-04T00:00:19.049Z,29.80
2018-11-04T00:02:49.183Z,29.23
2018-11-04T00:05:18.855Z,30.97
2018-11-04T00:07:49.708Z,22.77
2018-11-04T00:10:19.290Z,24.00
2018-11-04T00:12:48.803Z,17.70
2018-11-04T00:15:18.335Z,19.20
2018-11-04T00:17:47.832Z,20.27
2018-11-04T00:20:17.438Z,21.07
2018-11-04T00:22:46.949Z,19.30
2018-11-04T00:25:16.458Z,16.73
2018-11-04T00:27:45.987Z,23.57
2018-11-04T00:30:16.186Z,19.97
2018-11-04T00:32:46.177Z,21.67
2018-11-04T00:35:15.723Z,19.70
2018-11-04T00:37:45.219Z,19.77
2018-11-04T00:40:15.607Z,22.10
2018-11-04T00:42:46.531Z,19.73
2018-11-04T00:45:16.134Z,18.00
2018-11-04T00:47:45.807Z,15.83
2018-11-04T00:50:16.370Z,19.70
2018-11-04T00:52:47.053Z,20.70
2018-11-04T00:55:16.625Z,18.73
2018-11-04T00:57:46.119Z,18.27
2018-11-04T01:00:17.799Z,17.57
2018-11-04T01:02:49.639Z,17.87
2018-11-04T01:05:20.502Z,17.67
2018-11-04T01:07:50.167Z,19.17
2018-11-04T01:10:19.710Z,17.13
2018-11-04T01:12:49.263Z,14.90
2018-11-04T01:15:18.808Z,15.87
2018-11-04T01:17:48.355Z,14.13
2018-11-04T01:20:18.638Z,17.83
2018-11-04T01:22:48.121Z,14.53
2018-11-04T01:25:17.692Z,15.33
2018-11-04T01:27:47.186Z,15.20
2018-11-04T01:30:16.740Z,16.70
2018-11-04T01:32:46.351Z,17.53
2018-11-04T01:35:16.022Z,19.53
2018-11-04T01:37:45.586Z,17.30
2018-11-04T01:40:15.142Z,18.63
2018-11-04T01:42:44.697Z,19.50
2018-11-04T01:45:14.259Z,21.93
2018-11-04T01:47:43.816Z,18.83
2018-11-04T01:50:14.613Z,18.73
2018-11-04T01:52:44.204Z,19.23
2018-11-04T01:55:14.020Z,18.57
2018-11-04T01:57:43.631Z,18.17
2018-11-04T02:00:15.662Z,22.97
2018-11-04T02:02:45.835Z,21.90
2018-11-04T02:05:15.830Z,17.73
2018-11-04T02:07:45.351Z,20.20
2018-11-04T02:10:15.503Z,21.37
2018-11-04T02:12:45.135Z,17.80
2018-11-04T02:15:14.683Z,28.77
2018-11-04T02:17:44.234Z,18.07
2018-11-04T02:20:14.186Z,18.90
2018-11-04T02:22:43.798Z,17.70
2018-11-04T02:25:14.884Z,21.40
2018-11-04T02:27:44.751Z,20.53
2018-11-04T02:30:15.558Z,16.73
2018-11-04T02:32:46.043Z,16.07
2018-11-04T02:35:16.159Z,18.37
2018-11-04T02:37:45.703Z,13.40
2018-11-04T02:40:15.314Z,15.27
2018-11-04T02:42:44.882Z,13.67
2018-11-04T02:45:14.507Z,11.50
2018-11-04T02:47:44.169Z,13.27
2018-11-04T02:50:14.987Z,11.13
2018-11-04T02:52:44.623Z,14.67
2018-11-04T02:55:14.266Z,12.30
2018-11-04T02:57:43.798Z,14.57
2018-11-04T03:00:14.879Z,10.77
2018-11-04T03:02:44.483Z,11.93
2018-11-04T03:05:14.059Z,12.67
2018-11-04T03:07:43.899Z,13.47
2018-11-04T03:10:14.478Z,13.40
2018-11-04T03:12:44.083Z,11.70
2018-11-04T03:15:13.638Z,11.67
2018-11-04T03:17:43.171Z,13.70
2018-11-04T03:20:12.683Z,13.50
2018-11-04T03:22:42.207Z,12.47
2018-11-04T03:25:12.526Z,12.27
2018-11-04T03:27:42.087Z,11.23
2018-11-04T03:30:14.298Z,13.27
2018-11-04T03:32:43.926Z,11.37
2018-11-04T03:35:13.535Z,11.17
2018-11-04T03:37:43.188Z,13.17
2018-11-04T03:40:13.541Z,13.00
2018-11-04T03:42:43.561Z,12.10
2018-11-04T03:45:13.070Z,12.53
2018-11-04T03:47:42.679Z,13.43
2018-11-04T03:50:13.170Z,11.83
2018-11-04T03:52:43.304Z,12.70
2018-11-04T03:55:12.874Z,11.47
2018-11-04T03:57:43.575Z,11.47
2018-11-04T04:00:13.799Z,12.80
2018-11-04T04:02:44.168Z,12.47
2018-11-04T04:05:13.691Z,12.77
2018-11-04T04:07:43.203Z,14.43
2018-11-04T04:10:12.733Z,12.80
2018-11-04T04:12:42.258Z,13.30
2018-11-04T04:15:12.163Z,10.90
2018-11-04T04:17:41.667Z,11.83
2018-11-04T04:20:11.191Z,11.87
2018-11-04T04:22:40.712Z,11.97
2018-11-04T04:25:10.275Z,13.43
2018-11-04T04:27:39.933Z,12.63
2018-11-04T04:30:11.244Z,10.97
2018-11-04T04:32:41.019Z,15.53
2018-11-04T04:35:11.119Z,11.40
2018-11-04T04:37:41.155Z,14.67
2018-11-04T04:40:10.943Z,12.33
2018-11-04T04:42:40.435Z,13.33
2018-11-04T04:45:10.005Z,12.97
2018-11-04T04:47:39.663Z,11.17
2018-11-04T04:50:09.332Z,12.63
2018-11-04T04:52:38.888Z,16.67
2018-11-04T04:55:08.576Z,11.63
2018-11-04T04:57:38.157Z,13.23
2018-11-04T05:00:08.116Z,12.33
2018-11-04T05:02:37.767Z,11.23
2018-11-04T05:05:07.437Z,14.23
2018-11-04T05:07:36.955Z,13.33
2018-11-04T05:10:08.155Z,12.83
2018-11-04T05:12:37.731Z,11.90
2018-11-04T05:15:08.415Z,14.93
2018-11-04T05:17:44.311Z,13.53
2018-11-04T05:20:13.926Z,12.33
2018-11-04T05:22:43.522Z,12.57
2018-11-04T05:25:13.139Z,13.70
2018-11-04T05:27:42.673Z,12.60
2018-11-04T05:30:12.812Z,11.37
2018-11-04T05:32:42.303Z,12.80
2018-11-04T05:35:11.906Z,13.50
2018-11-04T05:37:41.446Z,10.43
2018-11-04T05:40:10.976Z,14.77
2018-11-04T05:42:41.102Z,12.83
2018-11-04T05:45:10.627Z,17.90
2018-11-04T05:47:40.167Z,19.07
2018-11-04T05:50:10.521Z,18.17
2018-11-04T05:52:40.011Z,17.93
2018-11-04T05:55:09.810Z,13.23
2018-11-04T05:57:39.334Z,14.83
2018-11-04T06:00:10.181Z,12.00
2018-11-04T06:02:40.224Z,11.37
2018-11-04T06:05:10.902Z,9.97
2018-11-04T06:07:40.630Z,12.13
2018-11-04T06:10:10.186Z,10.50
2018-11-04T06:12:39.710Z,14.10
2018-11-04T06:15:09.734Z,12.47
2018-11-04T06:17:39.238Z,14.40
2018-11-04T06:20:10.150Z,15.60
2018-11-04T06:22:39.693Z,15.53
2018-11-04T06:25:09.604Z,17.03
2018-11-04T06:27:39.116Z,15.83
2018-11-04T06:30:10.839Z,14.70
2018-11-04T06:32:40.629Z,15.73
2018-11-04T06:35:10.413Z,15.00
2018-11-04T06:37:39.971Z,14.80
2018-11-04T06:40:10.421Z,18.10
2018-11-04T06:42:40.240Z,17.90
2018-11-04T06:45:10.571Z,16.13
2018-11-04T06:47:40.562Z,15.47
2018-11-04T06:50:12.127Z,14.93
2018-11-04T06:52:42.271Z,16.43
2018-11-04T06:55:11.862Z,14.53
2018-11-04T06:57:41.520Z,16.60
2018-11-04T07:00:13.170Z,18.03
2018-11-04T07:02:42.854Z,14.50
2018-11-04T07:05:12.426Z,17.10
2018-11-04T07:07:41.926Z,15.43
2018-11-04T07:10:11.544Z,18.00
2018-11-04T07:12:41.131Z,15.50
2018-11-04T07:15:10.739Z,14.47
2018-11-04T07:17:40.327Z,12.60
2018-11-04T07:20:10.710Z,15.90
2018-11-04T07:22:40.312Z,16.57
2018-11-04T07:25:09.938Z,14.97
2018-11-04T07:27:39.491Z,16.23
2018-11-04T07:30:10.840Z,14.97
2018-11-04T07:32:40.434Z,17.50
2018-11-04T07:35:10.770Z,14.47
2018-11-04T07:37:40.610Z,15.37
2018-11-04T07:40:11.328Z,16.33
2018-11-04T07:42:40.838Z,13.77
2018-11-04T07:45:10.976Z,16.83
2018-11-04T07:47:40.556Z,13.80
2018-11-04T07:50:14.546Z,12.43
2018-11-04T07:52:44.898Z,14.77
2018-11-04T07:55:14.415Z,14.20
2018-11-04T07:57:45.534Z,15.77
2018-11-04T08:00:16.320Z,15.23
2018-11-04T08:02:46.183Z,17.17
2018-11-04T08:05:15.723Z,14.43
2018-11-04T08:07:45.498Z,14.27
2018-11-04T08:10:15.375Z,15.83
2018-11-04T08:12:45.057Z,18.10
2018-11-04T08:15:14.596Z,15.03
2018-11-04T08:17:44.141Z,20.27
2018-11-04T08:20:15.779Z,19.17
2018-11-04T08:22:45.485Z,15.57
2018-11-04T08:25:15.090Z,16.50
2018-11-04T08:27:44.650Z,15.43
2018-11-04T08:30:14.231Z,15.27
2018-11-04T08:32:43.778Z,16.23
2018-11-04T08:35:13.371Z,18.03
2018-11-04T08:37:42.942Z,19.30
2018-11-04T08:40:12.554Z,21.63
2018-11-04T08:42:42.145Z,23.80
2018-11-04T08:45:11.707Z,23.07
2018-11-04T08:47:41.294Z,22.23
2018-11-04T08:50:11.413Z,23.23
2018-11-04T08:52:41.033Z,26.83
2018-11-04T08:55:11.342Z,22.27
2018-11-04T08:57:41.035Z,22.97
2018-11-04T09:00:13.074Z,21.37
2018-11-04T09:02:43.403Z,26.57
2018-11-04T09:05:12.963Z,21.27
2018-11-04T09:07:42.535Z,25.10
2018-11-04T09:10:15.163Z,23.13
2018-11-04T09:12:45.375Z,26.03
2018-11-04T09:15:15.825Z,20.37
2018-11-04T09:17:45.358Z,21.23
2018-11-04T09:20:16.058Z,17.37
2018-11-04T09:22:45.721Z,17.43
2018-11-04T09:25:15.195Z,20.20
2018-11-04T09:27:44.710Z,17.90
2018-11-04T09:30:15.484Z,16.37
2018-11-04T09:32:45.064Z,16.80
2018-11-04T09:35:14.672Z,18.00
2018-11-04T09:37:44.198Z,16.97
2018-11-04T09:40:14.403Z,16.60
2018-11-04T09:42:43.926Z,17.10
2018-11-04T09:45:13.457Z,13.37
2018-11-04T09:47:42.994Z,15.97
2018-11-04T09:50:13.067Z,13.77
2018-11-04T09:52:42.584Z,11.97
2018-11-04T09:55:12.700Z,12.67
2018-11-04T09:57:42.883Z,13.90
2018-11-04T10:00:13.086Z,12.47
2018-11-04T10:02:42.643Z,11.73
2018-11-04T10:05:12.640Z,12.30
2018-11-04T10:07:42.187Z,12.60
2018-11-04T10:10:13.283Z,11.47
2018-11-04T10:12:43.850Z,9.77
2018-11-04T10:15:13.439Z,9.73
2018-11-04T10:17:42.999Z,10.50
2018-11-04T10:20:13.615Z,10.23
2018-11-04T10:22:42.946Z,10.47
2018-11-04T10:25:13.387Z,11.13
2018-11-04T10:27:44.078Z,10.97
2018-11-04T10:30:14.858Z,11.57
2018-11-04T10:32:44.547Z,10.20
2018-11-04T10:35:14.193Z,11.03
2018-11-04T10:37:44.246Z,10.03
2018-11-04T10:40:14.227Z,11.40
2018-11-04T10:42:43.794Z,9.37
2018-11-04T10:45:13.318Z,13.80
2018-11-04T10:47:42.864Z,11.43
2018-11-04T10:50:13.389Z,12.00
2018-11-04T10:52:42.937Z,11.53
2018-11-04T10:55:12.483Z,10.53
2018-11-04T10:57:42.028Z,14.73
2018-11-04T11:00:17.047Z,19.73
2018-11-04T11:02:46.829Z,16.03
2018-11-04T11:05:16.540Z,16.83
2018-11-04T11:07:46.170Z,17.67
2018-11-04T11:10:15.777Z,18.00
2018-11-04T11:12:45.411Z,16.50
2018-11-04T11:15:14.942Z,19.77
2018-11-04T11:17:45.243Z,19.50
2018-11-04T11:20:14.795Z,19.50
2018-11-04T11:22:44.462Z,19.97
2018-11-04T11:25:14.028Z,22.03
2018-11-04T11:27:43.633Z,22.83
2018-11-04T11:30:13.269Z,21.10
2018-11-04T11:32:42.843Z,22.83
2018-11-04T11:35:12.472Z,24.97
2018-11-04T11:37:42.076Z,25.87
2018-11-04T11:40:11.857Z,24.33
2018-11-04T11:42:41.422Z,26.40
2018-11-04T11:45:11.015Z,26.10
2018-11-04T11:47:40.583Z,27.27
2018-11-04T11:50:10.178Z,28.67
2018-11-04T11:52:39.886Z,28.80
2018-11-04T11:55:09.371Z,30.93
2018-11-04T11:57:38.964Z,27.50
2018-11-04T12:00:10.150Z,24.60
2018-11-04T12:02:40.423Z,25.17
2018-11-04T12:05:10.423Z,24.07
2018-11-04T12:07:40.022Z,25.13
2018-11-04T12:10:11.743Z,20.50
2018-11-04T12:12:41.449Z,22.57
2018-11-04T12:15:13.943Z,20.97
2018-11-04T12:17:43.813Z,23.20
2018-11-04T12:20:13.775Z,20.83
2018-11-04T12:22:43.427Z,20.63
2018-11-04T12:25:13.714Z,22.37
2018-11-04T12:27:43.641Z,20.13
2018-11-04T12:30:14.719Z,22.80
2018-11-04T12:32:44.307Z,24.50
2018-11-04T12:35:14.474Z,20.83
2018-11-04T12:37:44.007Z,24.00
2018-11-04T12:40:14.074Z,23.20
2018-11-04T12:42:43.701Z,21.40
2018-11-04T12:45:14.034Z,22.93
2018-11-04T12:47:43.947Z,22.00
2018-11-04T12:50:15.787Z,21.93
2018-11-04T12:52:45.895Z,22.93
2018-11-04T12:55:15.471Z,21.57
2018-11-04T12:57:45.057Z,26.80
2018-11-04T13:00:15.771Z,25.03
2018-11-04T13:02:45.858Z,25.27
2018-11-04T13:05:15.382Z,23.20
2018-11-04T13:07:44.891Z,28.77
2018-11-04T13:10:15.780Z,27.87
2018-11-04T13:12:45.763Z,24.17
2018-11-04T13:15:15.679Z,22.47
2018-11-04T13:17:45.164Z,25.70
2018-11-04T13:20:14.673Z,28.07
2018-11-04T13:22:44.207Z,26.23
2018-11-04T13:25:13.730Z,24.60
2018-11-04T13:27:43.247Z,25.50
2018-11-04T13:30:13.774Z,22.80
2018-11-04T13:32:43.327Z,24.53
2018-11-04T13:35:12.836Z,22.13
2018-11-04T13:37:42.330Z,25.23
2018-11-04T13:40:12.672Z,21.50
2018-11-04T13:42:42.682Z,21.50
2018-11-04T13:45:12.531Z,21.30
2018-11-04T13:47:42.103Z,21.93
2018-11-04T13:50:13.167Z,26.23
2018-11-04T13:52:43.422Z,23.23
2018-11-04T13:55:12.983Z,21.50
2018-11-04T13:57:42.598Z,20.47
2018-11-04T14:00:14.468Z,23.33
2018-11-04T14:02:45.381Z,21.00
2018-11-04T14:05:14.871Z,20.80
2018-11-04T14:07:44.375Z,22.17
2018-11-04T14:10:15.226Z,24.70
2018-11-04T14:12:45.714Z,28.27
2018-11-04T14:15:15.691Z,22.37
2018-11-04T14:17:45.231Z,25.03
2018-11-04T14:20:14.796Z,25.37
2018-11-04T14:22:44.306Z,27.57
2018-11-04T14:25:13.930Z,25.07
2018-11-04T14:27:43.442Z,25.80
2018-11-04T14:30:14.643Z,23.67
2018-11-04T14:32:44.696Z,25.70
2018-11-04T14:35:14.247Z,27.70
2018-11-04T14:37:44.107Z,29.03
2018-11-04T14:40:14.947Z,25.73
2018-11-04T14:42:46.097Z,27.57
2018-11-04T14:45:15.669Z,29.00
2018-11-04T14:47:45.278Z,27.57
2018-11-04T14:50:17.346Z,24.57
2018-11-04T14:52:47.606Z,25.73
2018-11-04T14:55:17.158Z,23.20
2018-11-04T14:57:46.730Z,25.17
2018-11-04T15:00:16.923Z,28.47
2018-11-04T15:02:46.478Z,26.80
2018-11-04T15:05:16.066Z,29.33
2018-11-04T15:07:45.647Z,25.60
2018-11-04T15:10:15.980Z,32.90
2018-11-04T15:12:45.734Z,32.37
2018-11-04T15:15:16.835Z,29.73
2018-11-04T15:17:46.414Z,30.27
2018-11-04T15:20:16.079Z,37.30
2018-11-04T15:22:47.143Z,38.80
2018-11-04T15:25:17.910Z,38.77
2018-11-04T15:27:47.799Z,34.40
2018-11-04T15:30:17.322Z,33.00
2018-11-04T15:32:46.960Z,34.20
2018-11-04T15:35:18.154Z,31.77
2018-11-04T15:37:47.723Z,34.67
2018-11-04T15:40:17.712Z,36.93
2018-11-04T15:42:47.243Z,36.83
2018-11-04T15:45:17.308Z,34.90
2018-11-04T15:47:46.912Z,34.67
2018-11-04T15:50:18.055Z,39.73
2018-11-04T15:52:48.235Z,36.60
2018-11-04T15:55:17.843Z,36.20
2018-11-04T15:57:47.424Z,30.80
2018-11-04T16:00:16.999Z,38.10
2018-11-04T16:02:46.613Z,38.47
2018-11-04T16:05:16.266Z,34.23
2018-11-04T16:07:45.884Z,34.50
2018-11-04T16:10:15.468Z,35.67
2018-11-04T16:12:45.045Z,32.40
2018-11-04T16:15:15.416Z,33.93
2018-11-04T16:17:45.475Z,34.57
2018-11-04T16:20:15.917Z,31.97
2018-11-04T16:22:46.127Z,37.13
2018-11-04T16:25:15.707Z,33.43
2018-11-04T16:27:45.219Z,34.13
2018-11-04T16:30:15.858Z,33.73
2018-11-04T16:32:45.480Z,34.73
2018-11-04T16:35:15.482Z,36.07
2018-11-04T16:37:45.688Z,48.47
2018-11-04T16:40:15.211Z,36.00
2018-11-04T16:42:44.723Z,34.60
2018-11-04T16:45:15.455Z,34.97
2018-11-04T16:47:45.107Z,30.30
2018-11-04T16:50:15.166Z,31.00
2018-11-04T16:52:45.324Z,41.53
2018-11-04T16:55:15.112Z,40.73
2018-11-04T16:57:44.953Z,36.87
2018-11-04T17:00:14.464Z,38.47
2018-11-04T17:02:44.022Z,38.20
2018-11-04T17:05:14.131Z,40.97
2018-11-04T17:07:43.966Z,47.33
2018-11-04T17:10:13.552Z,48.17
2018-11-04T17:12:43.142Z,47.00
2018-11-04T17:15:14.455Z,51.40
2018-11-04T17:17:44.238Z,49.27
2018-11-04T17:20:16.865Z,53.90
2018-11-04T17:22:46.804Z,54.03
2018-11-04T17:25:16.437Z,56.60
2018-11-04T17:27:46.047Z,59.20
2018-11-04T17:30:18.059Z,55.93
2018-11-04T17:32:48.237Z,52.57
2018-11-04T17:35:18.363Z,60.33
2018-11-04T17:37:48.266Z,60.23
2018-11-04T17:40:18.531Z,63.87
2018-11-04T17:42:48.096Z,65.07
2018-11-04T17:45:17.927Z,67.17
2018-11-04T17:47:47.955Z,69.60
2018-11-04T17:50:18.676Z,62.20
2018-11-04T17:52:48.534Z,70.33
2018-11-04T17:55:18.151Z,77.03
2018-11-04T17:57:47.744Z,72.90
2018-11-04T18:00:18.693Z,72.80
2018-11-04T18:02:48.283Z,73.27
2018-11-04T18:05:17.891Z,72.80
2018-11-04T18:07:47.469Z,72.60
2018-11-04T18:10:17.158Z,66.73
2018-11-04T18:12:47.691Z,76.97
2018-11-04T18:15:17.303Z,72.47
2018-11-04T18:17:46.886Z,74.83
2018-11-04T18:20:17.619Z,76.20
2018-11-04T18:22:47.203Z,79.50
2018-11-04T18:25:16.911Z,76.13
2018-11-04T18:27:46.471Z,76.23
2018-11-04T18:30:16.820Z,76.60
2018-11-04T18:32:47.042Z,79.63
2018-11-04T18:35:16.620Z,76.27
2018-11-04T18:37:46.202Z,81.30
2018-11-04T18:40:17.263Z,73.30
2018-11-04T18:42:46.970Z,79.97
2018-11-04T18:45:17.314Z,76.03
2018-11-04T18:47:47.031Z,82.20
2018-11-04T18:50:17.161Z,76.67
2018-11-04T18:52:47.790Z,81.77
2018-11-04T18:55:17.281Z,78.73
2018-11-04T18:57:46.855Z,80.77
2018-11-04T19:00:17.811Z,79.83
2018-11-04T19:02:48.135Z,86.37
2018-11-04T19:05:19.351Z,79.80
2018-11-04T19:07:48.955Z,79.50
2018-11-04T19:10:19.510Z,81.63
2018-11-04T19:12:49.211Z,85.00
2018-11-04T19:15:18.823Z,78.07
2018-11-04T19:17:48.312Z,76.70
2018-11-04T19:20:17.851Z,87.17
2018-11-04T19:22:47.366Z,83.37
2018-11-04T19:25:17.899Z,79.73
2018-11-04T19:27:50.062Z,80.43
2018-11-04T19:30:19.639Z,79.77
2018-11-04T19:32:49.346Z,83.90
2018-11-04T19:35:19.179Z,85.27
2018-11-04T19:37:49.414Z,86.20
2018-11-04T19:40:18.982Z,87.47
2018-11-04T19:42:48.601Z,83.47
2018-11-04T19:45:18.175Z,87.43
2018-11-04T19:47:49.124Z,87.53
2018-11-04T19:50:18.707Z,83.27
2018-11-04T19:52:48.307Z,87.53
2018-11-04T19:55:18.933Z,91.10
2018-11-04T19:57:48.468Z,87.17
2018-11-04T20:00:18.081Z,82.20
2018-11-04T20:02:47.664Z,91.50
2018-11-04T20:05:18.204Z,97.57
2018-11-04T20:07:47.795Z,83.93
2018-11-04T20:10:18.855Z,93.13
2018-11-04T20:12:53.435Z,91.57
2018-11-04T20:15:22.998Z,90.13
2018-11-04T20:17:52.578Z,92.67
2018-11-04T20:20:24.719Z,93.13
2018-11-04T20:22:54.441Z,92.10
2018-11-04T20:26:26.831Z,89.27
2018-11-04T20:28:56.637Z,101.93
2018-11-04T20:31:31.407Z,95.50
2018-11-04T20:34:01.028Z,103.10
2018-11-04T20:36:31.227Z,93.97
2018-11-04T20:40:05.776Z,99.07
2018-11-04T20:42:35.360Z,106.60
2018-11-04T20:45:05.067Z,105.83
2018-11-04T20:47:40.404Z,105.27
2018-11-04T20:50:15.303Z,104.63
2018-11-04T20:52:44.888Z,107.80
2018-11-04T20:55:14.459Z,111.63
2018-11-04T20:57:45.423Z,105.07
2018-11-04T21:00:15.052Z,110.50
2018-11-04T21:02:44.844Z,105.47
2018-11-04T21:05:14.350Z,99.20
2018-11-04T21:07:44.162Z,107.23
2018-11-04T21:10:13.777Z,109.40
2018-11-04T21:12:43.282Z,102.83
2018-11-04T21:15:12.815Z,113.03
2018-11-04T21:17:42.327Z,108.10
2018-11-04T21:20:11.866Z,115.07
2018-11-04T21:22:41.424Z,111.03
2018-11-04T21:25:11.314Z,117.20
2018-11-04T21:27:41.636Z,110.60
2018-11-04T21:30:12.608Z,117.80
2018-11-04T21:32:42.359Z,113.87
2018-11-04T21:35:11.902Z,110.33
2018-11-04T21:37:42.753Z,114.00
2018-11-04T21:40:12.343Z,119.10
2018-11-04T21:42:42.085Z,111.60
2018-11-04T21:45:12.944Z,130.20
2018-11-04T21:47:42.824Z,132.90
2018-11-04T21:50:12.726Z,135.20
2018-11-04T21:52:42.274Z,145.27
2018-11-04T21:55:12.988Z,139.63
2018-11-04T21:57:43.401Z,153.10
2018-11-04T22:00:14.240Z,165.67
2018-11-04T22:02:43.993Z,161.03
2018-11-04T22:05:13.635Z,146.53
2018-11-04T22:07:44.139Z,159.27
2018-11-04T22:10:14.894Z,152.97
2018-11-04T22:12:44.495Z,162.27
2018-11-04T22:15:14.926Z,157.47
2018-11-04T22:17:44.435Z,151.57
2018-11-04T22:20:14.023Z,153.33
2018-11-04T22:22:44.483Z,166.07
2018-11-04T22:25:14.426Z,161.67
2018-11-04T22:27:44.015Z,158.37
2018-11-04T22:30:13.715Z,162.30
2018-11-04T22:32:43.272Z,154.77
2018-11-04T22:35:13.082Z,152.90
2018-11-04T22:37:42.679Z,154.30
2018-11-04T22:40:12.752Z,154.90
2018-11-04T22:42:42.758Z,163.83
2018-11-04T22:45:12.979Z,161.33
2018-11-04T22:47:43.125Z,157.83
2018-11-04T22:50:14.512Z,165.20
2018-11-04T22:52:44.486Z,152.40
2018-11-04T22:55:14.935Z,145.10
2018-11-04T22:57:45.190Z,159.03
2018-11-04T23:00:20.058Z,146.20
2018-11-04T23:02:50.962Z,142.83
2018-11-04T23:05:25.571Z,137.00
2018-11-04T23:07:55.119Z,132.83
2018-11-04T23:10:24.678Z,139.80
2018-11-04T23:12:54.199Z,138.53
2018-11-04T23:15:23.748Z,123.73
2018-11-04T23:17:53.282Z,141.50
2018-11-04T23:20:22.835Z,127.17
2018-11-04T23:22:52.338Z,125.03
2018-11-04T23:25:21.839Z,113.00
2018-11-04T23:27:51.350Z,118.77
2018-11-04T23:30:20.927Z,114.40
2018-11-04T23:32:50.518Z,107.53
2018-11-04T23:35:20.087Z,110.47
2018-11-04T23:37:49.695Z,101.87
2018-11-04T23:40:19.267Z,105.43
2018-11-04T23:42:48.827Z,100.67
2018-11-04T23:45:18.467Z,99.97
2018-11-04T23:47:48.007Z,89.47
2018-11-04T23:50:17.852Z,92.80
2018-11-04T23:52:47.350Z,85.13
2018-11-04T23:55:16.859Z,72.00
2018-11-04T23:57:46.338Z,68.93
